sensor_id;sensor_type;location;lat;lon;timestamp;temperature;humidity
10042;DHT22;5061;49.068;12.058;2023-03-23T00:00:40;9.60;99.90
10042;DHT22;5061;49.068;12.058;2023-03-23T00:04:01;9.60;99.90
10042;DHT22;5061;49.068;12.058;2023-03-23T00:07:23;9.60;99.90
10042;DHT22;5061;49.068;12.058;2023-03-23T00:10:51;9.60;99.90
10042;DHT22;5061;49.068;12.058;2023-03-23T00:14:18;9.60;99.90
10042;DHT22;5061;49.068;12.058;2023-03-23T00:17:42;9.60;99.90
10042;DHT22;5061;49.068;12.058;2023-03-23T00:21:03;9.60;99.90
10042;DHT22;5061;49.068;12.058;2023-03-23T00:24:24;9.60;99.90
10042;DHT22;5061;49.068;12.058;2023-03-23T00:27:45;9.60;99.90
10042;DHT22;5061;49.068;12.058;2023-03-23T00:31:07;9.50;99.90
10042;DHT22;5061;49.068;12.058;2023-03-23T00:34:28;9.50;99.90
10042;DHT22;5061;49.068;12.058;2023-03-23T00:37:54;9.50;99.90
10042;DHT22;5061;49.068;12.058;2023-03-23T00:41:15;9.50;99.90
10042;DHT22;5061;49.068;12.058;2023-03-23T00:44:36;9.50;99.90
10042;DHT22;5061;49.068;12.058;2023-03-23T00:47:56;9.40;99.90
10042;DHT22;5061;49.068;12.058;2023-03-23T00:51:23;9.40;99.90
10042;DHT22;5061;49.068;12.058;2023-03-23T00:54:44;9.30;99.90
10042;DHT22;5061;49.068;12.058;2023-03-23T00:58:04;9.30;99.90
10042;DHT22;5061;49.068;12.058;2023-03-23T01:01:25;9.20;99.90
10042;DHT22;5061;49.068;12.058;2023-03-23T01:04:46;9.20;99.90
10042;DHT22;5061;49.068;12.058;2023-03-23T01:08:07;9.20;99.90
10042;DHT22;5061;49.068;12.058;2023-03-23T01:11:27;9.20;99.90
10042;DHT22;5061;49.068;12.058;2023-03-23T01:14:48;9.20;99.90
10042;DHT22;5061;49.068;12.058;2023-03-23T01:18:09;9.20;99.90
10042;DHT22;5061;49.068;12.058;2023-03-23T01:21:30;9.20;99.90
10042;DHT22;5061;49.068;12.058;2023-03-23T01:24:51;9.10;99.90
10042;DHT22;5061;49.068;12.058;2023-03-23T01:28:12;9.10;99.90
10042;DHT22;5061;49.068;12.058;2023-03-23T01:31:33;9.20;99.90
10042;DHT22;5061;49.068;12.058;2023-03-23T01:34:56;9.20;99.90
10042;DHT22;5061;49.068;12.058;2023-03-23T01:38:17;9.10;99.90
10042;DHT22;5061;49.068;12.058;2023-03-23T01:41:37;9.20;99.90
10042;DHT22;5061;49.068;12.058;2023-03-23T01:45:31;9.10;99.90
10042;DHT22;5061;49.068;12.058;2023-03-23T01:48:52;9.20;99.90
10042;DHT22;5061;49.068;12.058;2023-03-23T01:52:18;9.20;99.90
10042;DHT22;5061;49.068;12.058;2023-03-23T01:55:43;9.10;99.90
10042;DHT22;5061;49.068;12.058;2023-03-23T01:59:09;9.10;99.90
10042;DHT22;5061;49.068;12.058;2023-03-23T02:02:31;9.10;99.90
10042;DHT22;5061;49.068;12.058;2023-03-23T02:05:53;9.10;99.90
10042;DHT22;5061;49.068;12.058;2023-03-23T02:09:14;9.10;99.90
10042;DHT22;5061;49.068;12.058;2023-03-23T02:12:37;9.00;99.90
10042;DHT22;5061;49.068;12.058;2023-03-23T02:27:14;8.90;99.90
10042;DHT22;5061;49.068;12.058;2023-03-23T02:30:39;8.90;99.90
10042;DHT22;5061;49.068;12.058;2023-03-23T02:37:39;8.90;99.90
10042;DHT22;5061;49.068;12.058;2023-03-23T02:41:04;8.90;99.90
10042;DHT22;5061;49.068;12.058;2023-03-23T02:44:27;9.00;99.90
10042;DHT22;5061;49.068;12.058;2023-03-23T02:47:52;8.90;99.90
10042;DHT22;5061;49.068;12.058;2023-03-23T02:51:17;8.90;99.90
10042;DHT22;5061;49.068;12.058;2023-03-23T02:54:39;8.90;99.90
10042;DHT22;5061;49.068;12.058;2023-03-23T02:58:00;8.90;99.90
10042;DHT22;5061;49.068;12.058;2023-03-23T03:08:34;8.90;99.90
10042;DHT22;5061;49.068;12.058;2023-03-23T03:11:59;8.90;99.90
10042;DHT22;5061;49.068;12.058;2023-03-23T03:15:37;8.90;99.90
10042;DHT22;5061;49.068;12.058;2023-03-23T03:19:20;8.90;99.90
10042;DHT22;5061;49.068;12.058;2023-03-23T03:22:46;8.90;99.90
10042;DHT22;5061;49.068;12.058;2023-03-23T03:26:11;8.90;99.90
10042;DHT22;5061;49.068;12.058;2023-03-23T03:29:38;8.90;99.90
10042;DHT22;5061;49.068;12.058;2023-03-23T03:33:01;8.90;99.90
10042;DHT22;5061;49.068;12.058;2023-03-23T03:36:30;8.90;99.90
10042;DHT22;5061;49.068;12.058;2023-03-23T03:39:54;8.90;99.90
10042;DHT22;5061;49.068;12.058;2023-03-23T03:43:16;8.90;99.90
10042;DHT22;5061;49.068;12.058;2023-03-23T03:46:37;8.80;99.90
10042;DHT22;5061;49.068;12.058;2023-03-23T03:49:58;8.90;99.90
10042;DHT22;5061;49.068;12.058;2023-03-23T03:53:18;8.80;99.90
10042;DHT22;5061;49.068;12.058;2023-03-23T03:56:39;8.80;99.90
10042;DHT22;5061;49.068;12.058;2023-03-23T04:00:04;8.80;99.90
10042;DHT22;5061;49.068;12.058;2023-03-23T04:03:37;8.80;99.90
10042;DHT22;5061;49.068;12.058;2023-03-23T04:06:58;8.70;99.90
10042;DHT22;5061;49.068;12.058;2023-03-23T04:10:20;8.70;99.90
10042;DHT22;5061;49.068;12.058;2023-03-23T04:13:41;8.70;99.90
10042;DHT22;5061;49.068;12.058;2023-03-23T04:17:02;8.70;99.90
10042;DHT22;5061;49.068;12.058;2023-03-23T04:20:23;8.70;99.90
10042;DHT22;5061;49.068;12.058;2023-03-23T04:23:45;8.70;99.90
10042;DHT22;5061;49.068;12.058;2023-03-23T04:27:06;8.60;99.90
10042;DHT22;5061;49.068;12.058;2023-03-23T04:30:28;8.60;99.90
10042;DHT22;5061;49.068;12.058;2023-03-23T04:33:50;8.60;99.90
10042;DHT22;5061;49.068;12.058;2023-03-23T04:37:12;8.50;99.90
10042;DHT22;5061;49.068;12.058;2023-03-23T04:40:38;8.60;99.90
10042;DHT22;5061;49.068;12.058;2023-03-23T04:43:59;8.60;99.90
10042;DHT22;5061;49.068;12.058;2023-03-23T04:47:24;8.50;99.90
10042;DHT22;5061;49.068;12.058;2023-03-23T04:50:49;8.50;99.90
10042;DHT22;5061;49.068;12.058;2023-03-23T04:54:11;8.50;99.90
10042;DHT22;5061;49.068;12.058;2023-03-23T04:57:32;8.50;99.90
10042;DHT22;5061;49.068;12.058;2023-03-23T05:00:53;8.50;99.90
10042;DHT22;5061;49.068;12.058;2023-03-23T05:04:13;8.50;99.90
10042;DHT22;5061;49.068;12.058;2023-03-23T05:07:37;8.50;99.90
10042;DHT22;5061;49.068;12.058;2023-03-23T05:11:00;8.50;99.90
10042;DHT22;5061;49.068;12.058;2023-03-23T05:14:21;8.50;99.90
10042;DHT22;5061;49.068;12.058;2023-03-23T05:17:42;8.50;99.90
10042;DHT22;5061;49.068;12.058;2023-03-23T05:21:04;8.40;99.90
10042;DHT22;5061;49.068;12.058;2023-03-23T05:24:25;8.40;99.90
10042;DHT22;5061;49.068;12.058;2023-03-23T05:27:46;8.40;99.90
10042;DHT22;5061;49.068;12.058;2023-03-23T05:31:12;8.40;99.90
10042;DHT22;5061;49.068;12.058;2023-03-23T05:34:34;8.40;99.90
10042;DHT22;5061;49.068;12.058;2023-03-23T05:37:55;8.40;99.90
10042;DHT22;5061;49.068;12.058;2023-03-23T05:41:17;8.40;99.90
10042;DHT22;5061;49.068;12.058;2023-03-23T05:44:38;8.40;99.90
10042;DHT22;5061;49.068;12.058;2023-03-23T05:47:58;8.40;99.90
10042;DHT22;5061;49.068;12.058;2023-03-23T05:51:19;8.40;99.90
10042;DHT22;5061;49.068;12.058;2023-03-23T05:54:40;8.40;99.90
10042;DHT22;5061;49.068;12.058;2023-03-23T05:58:01;8.40;99.90
10042;DHT22;5061;49.068;12.058;2023-03-23T06:01:22;8.40;99.90
10042;DHT22;5061;49.068;12.058;2023-03-23T06:04:43;8.40;99.90
10042;DHT22;5061;49.068;12.058;2023-03-23T06:08:05;8.40;99.90
10042;DHT22;5061;49.068;12.058;2023-03-23T06:11:26;8.40;99.90
10042;DHT22;5061;49.068;12.058;2023-03-23T06:14:47;8.40;99.90
10042;DHT22;5061;49.068;12.058;2023-03-23T06:18:08;8.40;99.90
10042;DHT22;5061;49.068;12.058;2023-03-23T06:21:30;8.40;99.90
10042;DHT22;5061;49.068;12.058;2023-03-23T06:24:50;8.40;99.90
10042;DHT22;5061;49.068;12.058;2023-03-23T06:28:11;8.40;99.90
10042;DHT22;5061;49.068;12.058;2023-03-23T06:31:33;8.50;99.90
10042;DHT22;5061;49.068;12.058;2023-03-23T06:34:54;8.50;99.90
10042;DHT22;5061;49.068;12.058;2023-03-23T06:38:15;8.60;99.90
10042;DHT22;5061;49.068;12.058;2023-03-23T06:41:36;8.70;99.90
10042;DHT22;5061;49.068;12.058;2023-03-23T06:44:57;8.70;99.90
10042;DHT22;5061;49.068;12.058;2023-03-23T06:48:18;8.80;99.90
10042;DHT22;5061;49.068;12.058;2023-03-23T06:51:38;8.80;99.90
10042;DHT22;5061;49.068;12.058;2023-03-23T06:54:59;8.80;99.90
10042;DHT22;5061;49.068;12.058;2023-03-23T06:58:20;8.80;99.90
10042;DHT22;5061;49.068;12.058;2023-03-23T07:01:41;8.90;99.90
10042;DHT22;5061;49.068;12.058;2023-03-23T07:05:02;8.90;99.90
10042;DHT22;5061;49.068;12.058;2023-03-23T07:08:23;9.00;99.90
10042;DHT22;5061;49.068;12.058;2023-03-23T07:11:44;9.00;99.90
10042;DHT22;5061;49.068;12.058;2023-03-23T07:15:08;9.00;99.90
10042;DHT22;5061;49.068;12.058;2023-03-23T07:18:34;9.00;99.90
10042;DHT22;5061;49.068;12.058;2023-03-23T07:21:54;9.00;99.90
10042;DHT22;5061;49.068;12.058;2023-03-23T07:25:17;9.10;99.90
10042;DHT22;5061;49.068;12.058;2023-03-23T07:28:38;9.10;99.90
10042;DHT22;5061;49.068;12.058;2023-03-23T07:32:01;9.10;99.90
10042;DHT22;5061;49.068;12.058;2023-03-23T07:35:22;9.20;99.90
10042;DHT22;5061;49.068;12.058;2023-03-23T07:38:43;9.30;99.90
10042;DHT22;5061;49.068;12.058;2023-03-23T07:42:04;9.30;99.90
10042;DHT22;5061;49.068;12.058;2023-03-23T07:45:25;9.40;99.90
10042;DHT22;5061;49.068;12.058;2023-03-23T07:48:45;9.50;99.90
10042;DHT22;5061;49.068;12.058;2023-03-23T07:52:06;9.50;99.90
10042;DHT22;5061;49.068;12.058;2023-03-23T07:55:27;9.60;99.90
10042;DHT22;5061;49.068;12.058;2023-03-23T07:58:49;9.60;99.90
10042;DHT22;5061;49.068;12.058;2023-03-23T08:02:09;9.70;99.90
10042;DHT22;5061;49.068;12.058;2023-03-23T08:05:30;9.80;99.90
10042;DHT22;5061;49.068;12.058;2023-03-23T08:08:53;9.80;99.90
10042;DHT22;5061;49.068;12.058;2023-03-23T08:12:14;9.90;99.90
10042;DHT22;5061;49.068;12.058;2023-03-23T08:15:34;9.90;99.90
10042;DHT22;5061;49.068;12.058;2023-03-23T08:18:57;9.90;99.90
10042;DHT22;5061;49.068;12.058;2023-03-23T08:22:18;10.00;99.90
10042;DHT22;5061;49.068;12.058;2023-03-23T08:25:39;10.00;99.90
10042;DHT22;5061;49.068;12.058;2023-03-23T08:29:00;10.10;99.90
10042;DHT22;5061;49.068;12.058;2023-03-23T08:32:23;10.20;99.90
10042;DHT22;5061;49.068;12.058;2023-03-23T08:35:44;10.20;99.90
10042;DHT22;5061;49.068;12.058;2023-03-23T08:39:04;10.30;99.90
10042;DHT22;5061;49.068;12.058;2023-03-23T08:42:26;10.40;99.90
10042;DHT22;5061;49.068;12.058;2023-03-23T08:45:47;10.60;99.90
10042;DHT22;5061;49.068;12.058;2023-03-23T08:49:08;10.70;99.90
10042;DHT22;5061;49.068;12.058;2023-03-23T08:52:29;10.80;99.90
10042;DHT22;5061;49.068;12.058;2023-03-23T08:55:50;10.90;99.90
10042;DHT22;5061;49.068;12.058;2023-03-23T08:59:10;11.00;99.90
10042;DHT22;5061;49.068;12.058;2023-03-23T09:02:31;11.10;99.90
10042;DHT22;5061;49.068;12.058;2023-03-23T09:05:59;11.30;99.90
10042;DHT22;5061;49.068;12.058;2023-03-23T09:09:20;11.40;99.90
10042;DHT22;5061;49.068;12.058;2023-03-23T09:12:42;11.50;99.90
10042;DHT22;5061;49.068;12.058;2023-03-23T09:16:04;11.50;99.90
10042;DHT22;5061;49.068;12.058;2023-03-23T09:19:25;11.60;99.90
10042;DHT22;5061;49.068;12.058;2023-03-23T09:22:48;11.70;99.90
10042;DHT22;5061;49.068;12.058;2023-03-23T09:26:09;11.80;99.90
10042;DHT22;5061;49.068;12.058;2023-03-23T09:29:30;11.90;99.90
10042;DHT22;5061;49.068;12.058;2023-03-23T09:32:50;12.00;99.90
10042;DHT22;5061;49.068;12.058;2023-03-23T09:36:11;12.10;99.90
10042;DHT22;5061;49.068;12.058;2023-03-23T09:39:34;12.10;99.90
10042;DHT22;5061;49.068;12.058;2023-03-23T09:50:18;12.20;99.90
10042;DHT22;5061;49.068;12.058;2023-03-23T09:53:43;12.30;99.90
10042;DHT22;5061;49.068;12.058;2023-03-23T09:57:16;12.40;99.90
10042;DHT22;5061;49.068;12.058;2023-03-23T10:00:41;12.40;99.90
10042;DHT22;5061;49.068;12.058;2023-03-23T10:04:10;12.50;99.90
10042;DHT22;5061;49.068;12.058;2023-03-23T10:07:33;12.60;99.90
10042;DHT22;5061;49.068;12.058;2023-03-23T10:11:22;12.70;99.90
10042;DHT22;5061;49.068;12.058;2023-03-23T10:22:08;12.90;99.90
10042;DHT22;5061;49.068;12.058;2023-03-23T10:25:34;12.90;99.90
10042;DHT22;5061;49.068;12.058;2023-03-23T10:28:58;13.10;99.90
10042;DHT22;5061;49.068;12.058;2023-03-23T10:32:41;13.10;99.90
10042;DHT22;5061;49.068;12.058;2023-03-23T10:36:12;13.20;99.90
10042;DHT22;5061;49.068;12.058;2023-03-23T10:39:54;13.30;99.90
10042;DHT22;5061;49.068;12.058;2023-03-23T10:43:19;13.50;99.90
10042;DHT22;5061;49.068;12.058;2023-03-23T10:46:53;13.60;99.90
10042;DHT22;5061;49.068;12.058;2023-03-23T10:50:22;13.70;99.90
10042;DHT22;5061;49.068;12.058;2023-03-23T10:53:51;13.90;99.90
10042;DHT22;5061;49.068;12.058;2023-03-23T10:57:24;14.00;99.90
10042;DHT22;5061;49.068;12.058;2023-03-23T11:00:46;14.20;99.90
10042;DHT22;5061;49.068;12.058;2023-03-23T11:04:13;14.40;99.90
10042;DHT22;5061;49.068;12.058;2023-03-23T11:07:35;14.60;99.90
10042;DHT22;5061;49.068;12.058;2023-03-23T11:11:11;14.70;99.90
10042;DHT22;5061;49.068;12.058;2023-03-23T11:14:36;14.90;99.90
10042;DHT22;5061;49.068;12.058;2023-03-23T11:18:03;15.00;99.90
10042;DHT22;5061;49.068;12.058;2023-03-23T11:21:25;15.10;99.90
10042;DHT22;5061;49.068;12.058;2023-03-23T11:24:50;15.30;99.90
10042;DHT22;5061;49.068;12.058;2023-03-23T11:28:14;15.40;99.90
10042;DHT22;5061;49.068;12.058;2023-03-23T11:35:03;15.60;99.90
10042;DHT22;5061;49.068;12.058;2023-03-23T11:38:28;15.60;99.90
10042;DHT22;5061;49.068;12.058;2023-03-23T11:41:49;15.70;99.90
10042;DHT22;5061;49.068;12.058;2023-03-23T11:49:01;15.70;99.90
10042;DHT22;5061;49.068;12.058;2023-03-23T11:56:18;15.90;99.90
10042;DHT22;5061;49.068;12.058;2023-03-23T11:59:40;16.00;99.90
10042;DHT22;5061;49.068;12.058;2023-03-23T12:03:19;16.10;99.90
10042;DHT22;5061;49.068;12.058;2023-03-23T12:13:47;16.20;99.90
10042;DHT22;5061;49.068;12.058;2023-03-23T12:32:07;16.10;99.90
10042;DHT22;5061;49.068;12.058;2023-03-23T12:49:58;16.10;99.90
10042;DHT22;5061;49.068;12.058;2023-03-23T12:53:26;16.10;99.90
10042;DHT22;5061;49.068;12.058;2023-03-23T12:57:04;16.00;99.90
10042;DHT22;5061;49.068;12.058;2023-03-23T13:00:31;16.00;99.90
10042;DHT22;5061;49.068;12.058;2023-03-23T13:07:35;15.90;99.90
10042;DHT22;5061;49.068;12.058;2023-03-23T13:11:01;15.90;99.90
10042;DHT22;5061;49.068;12.058;2023-03-23T13:18:08;15.80;99.90
10042;DHT22;5061;49.068;12.058;2023-03-23T13:22:15;15.80;99.90
10042;DHT22;5061;49.068;12.058;2023-03-23T13:25:19;15.80;99.90
10042;DHT22;5061;49.068;12.058;2023-03-23T13:28:54;15.80;99.90
10042;DHT22;5061;49.068;12.058;2023-03-23T13:32:17;15.80;99.90
10042;DHT22;5061;49.068;12.058;2023-03-23T13:35:41;15.90;99.90
10042;DHT22;5061;49.068;12.058;2023-03-23T13:39:05;15.90;99.90
10042;DHT22;5061;49.068;12.058;2023-03-23T13:42:29;15.90;99.90
10042;DHT22;5061;49.068;12.058;2023-03-23T13:45:55;16.00;99.90
10042;DHT22;5061;49.068;12.058;2023-03-23T13:49:21;16.00;99.90
10042;DHT22;5061;49.068;12.058;2023-03-23T13:56:32;16.10;99.90
10042;DHT22;5061;49.068;12.058;2023-03-23T13:59:58;16.20;99.90
10042;DHT22;5061;49.068;12.058;2023-03-23T14:03:41;16.20;99.90
10042;DHT22;5061;49.068;12.058;2023-03-23T14:07:10;16.20;99.90
10042;DHT22;5061;49.068;12.058;2023-03-23T14:10:38;16.30;99.90
10042;DHT22;5061;49.068;12.058;2023-03-23T14:14:07;16.30;99.90
10042;DHT22;5061;49.068;12.058;2023-03-23T14:17:43;16.20;99.90
10042;DHT22;5061;49.068;12.058;2023-03-23T14:21:05;16.20;99.90
10042;DHT22;5061;49.068;12.058;2023-03-23T14:24:29;16.30;99.90
10042;DHT22;5061;49.068;12.058;2023-03-23T14:27:51;16.20;99.90
10042;DHT22;5061;49.068;12.058;2023-03-23T14:31:25;16.10;99.90
10042;DHT22;5061;49.068;12.058;2023-03-23T14:34:47;16.10;99.90
10042;DHT22;5061;49.068;12.058;2023-03-23T14:38:19;16.00;99.90
10042;DHT22;5061;49.068;12.058;2023-03-23T14:41:41;15.90;99.90
10042;DHT22;5061;49.068;12.058;2023-03-23T14:45:05;15.90;99.90
10042;DHT22;5061;49.068;12.058;2023-03-23T14:48:26;15.90;99.90
10042;DHT22;5061;49.068;12.058;2023-03-23T14:51:51;15.90;99.90
10042;DHT22;5061;49.068;12.058;2023-03-23T14:55:21;15.80;99.90
10042;DHT22;5061;49.068;12.058;2023-03-23T14:58:46;15.80;99.90
10042;DHT22;5061;49.068;12.058;2023-03-23T15:02:16;15.80;99.90
10042;DHT22;5061;49.068;12.058;2023-03-23T15:05:42;15.80;99.90
10042;DHT22;5061;49.068;12.058;2023-03-23T15:09:11;15.80;99.90
10042;DHT22;5061;49.068;12.058;2023-03-23T15:12:33;15.70;99.90
10042;DHT22;5061;49.068;12.058;2023-03-23T15:16:05;15.70;99.90
10042;DHT22;5061;49.068;12.058;2023-03-23T15:19:31;15.70;99.90
10042;DHT22;5061;49.068;12.058;2023-03-23T15:22:53;15.70;99.90
10042;DHT22;5061;49.068;12.058;2023-03-23T15:26:26;15.70;99.90
10042;DHT22;5061;49.068;12.058;2023-03-23T15:29:55;15.70;99.90
10042;DHT22;5061;49.068;12.058;2023-03-23T15:33:18;15.70;99.90
10042;DHT22;5061;49.068;12.058;2023-03-23T15:36:40;15.70;99.90
10042;DHT22;5061;49.068;12.058;2023-03-23T15:40:01;15.70;99.90
10042;DHT22;5061;49.068;12.058;2023-03-23T15:43:30;15.70;99.90
10042;DHT22;5061;49.068;12.058;2023-03-23T15:53:52;15.60;99.90
10042;DHT22;5061;49.068;12.058;2023-03-23T15:57:13;15.60;99.90
10042;DHT22;5061;49.068;12.058;2023-03-23T16:00:34;15.60;99.90
10042;DHT22;5061;49.068;12.058;2023-03-23T16:07:22;15.60;99.90
10042;DHT22;5061;49.068;12.058;2023-03-23T16:10:43;15.50;99.90
10042;DHT22;5061;49.068;12.058;2023-03-23T16:14:04;15.60;99.90
10042;DHT22;5061;49.068;12.058;2023-03-23T16:17:25;15.50;99.90
10042;DHT22;5061;49.068;12.058;2023-03-23T16:20:46;15.50;99.90
10042;DHT22;5061;49.068;12.058;2023-03-23T16:24:08;15.50;99.90
10042;DHT22;5061;49.068;12.058;2023-03-23T16:27:29;15.50;99.90
10042;DHT22;5061;49.068;12.058;2023-03-23T16:30:50;15.50;99.90
10042;DHT22;5061;49.068;12.058;2023-03-23T16:34:11;15.40;99.90
10042;DHT22;5061;49.068;12.058;2023-03-23T16:37:31;15.40;99.90
10042;DHT22;5061;49.068;12.058;2023-03-23T16:40:53;15.40;99.90
10042;DHT22;5061;49.068;12.058;2023-03-23T16:44:14;15.30;99.90
10042;DHT22;5061;49.068;12.058;2023-03-23T16:47:36;15.30;99.90
10042;DHT22;5061;49.068;12.058;2023-03-23T16:50:57;15.20;99.90
10042;DHT22;5061;49.068;12.058;2023-03-23T16:54:17;15.20;99.90
10042;DHT22;5061;49.068;12.058;2023-03-23T16:57:39;15.20;99.90
10042;DHT22;5061;49.068;12.058;2023-03-23T17:01:00;15.10;99.90
10042;DHT22;5061;49.068;12.058;2023-03-23T17:04:21;15.10;99.90
10042;DHT22;5061;49.068;12.058;2023-03-23T17:07:42;15.00;99.90
10042;DHT22;5061;49.068;12.058;2023-03-23T17:11:02;15.00;99.90
10042;DHT22;5061;49.068;12.058;2023-03-23T17:14:23;14.90;99.90
10042;DHT22;5061;49.068;12.058;2023-03-23T17:17:44;14.90;99.90
10042;DHT22;5061;49.068;12.058;2023-03-23T17:21:05;14.80;99.90
10042;DHT22;5061;49.068;12.058;2023-03-23T17:24:26;14.80;99.90
10042;DHT22;5061;49.068;12.058;2023-03-23T17:27:47;14.70;99.90
10042;DHT22;5061;49.068;12.058;2023-03-23T17:31:07;14.70;99.90
10042;DHT22;5061;49.068;12.058;2023-03-23T17:34:28;14.60;99.90
10042;DHT22;5061;49.068;12.058;2023-03-23T17:37:49;14.60;99.90
10042;DHT22;5061;49.068;12.058;2023-03-23T17:41:10;14.50;99.90
10042;DHT22;5061;49.068;12.058;2023-03-23T17:44:30;14.50;99.90
10042;DHT22;5061;49.068;12.058;2023-03-23T17:47:51;14.40;99.90
10042;DHT22;5061;49.068;12.058;2023-03-23T17:51:12;14.40;99.90
10042;DHT22;5061;49.068;12.058;2023-03-23T17:54:32;14.30;99.90
10042;DHT22;5061;49.068;12.058;2023-03-23T17:57:53;14.30;99.90
10042;DHT22;5061;49.068;12.058;2023-03-23T18:01:17;14.30;99.90
10042;DHT22;5061;49.068;12.058;2023-03-23T18:04:38;14.30;99.90
10042;DHT22;5061;49.068;12.058;2023-03-23T18:08:02;14.30;99.90
10042;DHT22;5061;49.068;12.058;2023-03-23T18:11:23;14.20;99.90
10042;DHT22;5061;49.068;12.058;2023-03-23T18:14:51;14.20;99.90
10042;DHT22;5061;49.068;12.058;2023-03-23T18:18:15;14.10;99.90
10042;DHT22;5061;49.068;12.058;2023-03-23T18:21:36;14.10;99.90
10042;DHT22;5061;49.068;12.058;2023-03-23T18:24:58;14.00;99.90
10042;DHT22;5061;49.068;12.058;2023-03-23T18:28:20;14.00;99.90
10042;DHT22;5061;49.068;12.058;2023-03-23T18:31:46;13.90;99.90
10042;DHT22;5061;49.068;12.058;2023-03-23T18:35:09;13.90;99.90
10042;DHT22;5061;49.068;12.058;2023-03-23T18:38:30;13.90;99.90
10042;DHT22;5061;49.068;12.058;2023-03-23T18:41:51;13.90;99.90
10042;DHT22;5061;49.068;12.058;2023-03-23T18:45:12;13.80;99.90
10042;DHT22;5061;49.068;12.058;2023-03-23T18:48:33;13.80;99.90
10042;DHT22;5061;49.068;12.058;2023-03-23T18:51:55;13.80;99.90
10042;DHT22;5061;49.068;12.058;2023-03-23T18:55:16;13.80;99.90
10042;DHT22;5061;49.068;12.058;2023-03-23T18:58:37;13.70;99.90
10042;DHT22;5061;49.068;12.058;2023-03-23T19:01:58;13.70;99.90
10042;DHT22;5061;49.068;12.058;2023-03-23T19:05:19;13.70;99.90
10042;DHT22;5061;49.068;12.058;2023-03-23T19:08:40;13.60;99.90
10042;DHT22;5061;49.068;12.058;2023-03-23T19:12:00;13.60;99.90
10042;DHT22;5061;49.068;12.058;2023-03-23T19:15:21;13.60;99.90
10042;DHT22;5061;49.068;12.058;2023-03-23T19:18:43;13.50;99.90
10042;DHT22;5061;49.068;12.058;2023-03-23T19:22:04;13.50;99.90
10042;DHT22;5061;49.068;12.058;2023-03-23T19:25:27;13.50;99.90
10042;DHT22;5061;49.068;12.058;2023-03-23T19:28:47;13.50;99.90
10042;DHT22;5061;49.068;12.058;2023-03-23T19:32:08;13.40;99.90
10042;DHT22;5061;49.068;12.058;2023-03-23T19:35:30;13.40;99.90
10042;DHT22;5061;49.068;12.058;2023-03-23T19:38:51;13.40;99.90
10042;DHT22;5061;49.068;12.058;2023-03-23T19:42:14;13.30;99.90
10042;DHT22;5061;49.068;12.058;2023-03-23T19:45:38;13.30;99.90
10042;DHT22;5061;49.068;12.058;2023-03-23T19:49:03;13.30;99.90
10042;DHT22;5061;49.068;12.058;2023-03-23T19:52:28;13.20;99.90
10042;DHT22;5061;49.068;12.058;2023-03-23T19:55:55;13.20;99.90
10042;DHT22;5061;49.068;12.058;2023-03-23T19:59:15;13.20;99.90
10042;DHT22;5061;49.068;12.058;2023-03-23T20:02:39;13.20;99.90
10042;DHT22;5061;49.068;12.058;2023-03-23T20:06:01;13.20;99.90
10042;DHT22;5061;49.068;12.058;2023-03-23T20:09:26;13.20;99.90
10042;DHT22;5061;49.068;12.058;2023-03-23T20:12:50;13.20;99.90
10042;DHT22;5061;49.068;12.058;2023-03-23T20:16:17;13.10;99.90
10042;DHT22;5061;49.068;12.058;2023-03-23T20:19:41;13.10;99.90
10042;DHT22;5061;49.068;12.058;2023-03-23T20:23:01;13.10;99.90
10042;DHT22;5061;49.068;12.058;2023-03-23T20:26:31;13.10;99.90
10042;DHT22;5061;49.068;12.058;2023-03-23T20:29:53;13.00;99.90
10042;DHT22;5061;49.068;12.058;2023-03-23T20:33:14;13.00;99.90
10042;DHT22;5061;49.068;12.058;2023-03-23T20:36:40;13.00;99.90
10042;DHT22;5061;49.068;12.058;2023-03-23T20:40:01;13.00;99.90
10042;DHT22;5061;49.068;12.058;2023-03-23T20:43:28;13.00;99.90
10042;DHT22;5061;49.068;12.058;2023-03-23T20:46:50;13.00;99.90
10042;DHT22;5061;49.068;12.058;2023-03-23T20:50:22;12.90;99.90
10042;DHT22;5061;49.068;12.058;2023-03-23T20:53:43;12.90;99.90
10042;DHT22;5061;49.068;12.058;2023-03-23T20:57:04;12.90;99.90
10042;DHT22;5061;49.068;12.058;2023-03-23T21:00:25;12.90;99.90
10042;DHT22;5061;49.068;12.058;2023-03-23T21:03:49;12.90;99.90
10042;DHT22;5061;49.068;12.058;2023-03-23T21:07:12;12.90;99.90
10042;DHT22;5061;49.068;12.058;2023-03-23T21:10:33;12.90;99.90
10042;DHT22;5061;49.068;12.058;2023-03-23T21:13:54;12.90;99.90
10042;DHT22;5061;49.068;12.058;2023-03-23T21:17:15;12.80;99.90
10042;DHT22;5061;49.068;12.058;2023-03-23T21:20:36;12.80;99.90
10042;DHT22;5061;49.068;12.058;2023-03-23T21:24:01;12.80;99.90
10042;DHT22;5061;49.068;12.058;2023-03-23T21:27:22;12.80;99.90
10042;DHT22;5061;49.068;12.058;2023-03-23T21:30:43;12.80;99.90
10042;DHT22;5061;49.068;12.058;2023-03-23T21:34:04;12.80;99.90
10042;DHT22;5061;49.068;12.058;2023-03-23T21:37:25;12.80;99.90
10042;DHT22;5061;49.068;12.058;2023-03-23T21:40:53;12.70;99.90
10042;DHT22;5061;49.068;12.058;2023-03-23T21:44:17;12.70;99.90
10042;DHT22;5061;49.068;12.058;2023-03-23T21:47:39;12.70;99.90
10042;DHT22;5061;49.068;12.058;2023-03-23T21:51:12;12.70;99.90
10042;DHT22;5061;49.068;12.058;2023-03-23T21:54:34;12.60;99.90
10042;DHT22;5061;49.068;12.058;2023-03-23T21:57:55;12.60;99.90
10042;DHT22;5061;49.068;12.058;2023-03-23T22:01:16;12.60;99.90
10042;DHT22;5061;49.068;12.058;2023-03-23T22:04:37;12.60;99.90
10042;DHT22;5061;49.068;12.058;2023-03-23T22:07:57;12.60;99.90
10042;DHT22;5061;49.068;12.058;2023-03-23T22:11:24;12.60;99.90
10042;DHT22;5061;49.068;12.058;2023-03-23T22:14:45;12.60;99.90
10042;DHT22;5061;49.068;12.058;2023-03-23T22:18:06;12.60;99.90
10042;DHT22;5061;49.068;12.058;2023-03-23T22:21:27;12.60;99.90
10042;DHT22;5061;49.068;12.058;2023-03-23T22:24:48;12.60;99.90
10042;DHT22;5061;49.068;12.058;2023-03-23T22:28:10;12.50;99.90
10042;DHT22;5061;49.068;12.058;2023-03-23T22:31:33;12.50;99.90
10042;DHT22;5061;49.068;12.058;2023-03-23T22:34:54;12.50;99.90
10042;DHT22;5061;49.068;12.058;2023-03-23T22:38:15;12.50;99.90
10042;DHT22;5061;49.068;12.058;2023-03-23T22:41:38;12.40;99.90
10042;DHT22;5061;49.068;12.058;2023-03-23T22:44:59;12.40;99.90
10042;DHT22;5061;49.068;12.058;2023-03-23T22:48:21;12.40;99.90
10042;DHT22;5061;49.068;12.058;2023-03-23T22:51:42;12.40;99.90
10042;DHT22;5061;49.068;12.058;2023-03-23T22:55:04;12.40;99.90
10042;DHT22;5061;49.068;12.058;2023-03-23T22:58:26;12.30;99.90
10042;DHT22;5061;49.068;12.058;2023-03-23T23:01:47;12.30;99.90
10042;DHT22;5061;49.068;12.058;2023-03-23T23:05:08;12.30;99.90
10042;DHT22;5061;49.068;12.058;2023-03-23T23:08:30;12.30;99.90
10042;DHT22;5061;49.068;12.058;2023-03-23T23:11:52;12.30;99.90
10042;DHT22;5061;49.068;12.058;2023-03-23T23:15:13;12.30;99.90
10042;DHT22;5061;49.068;12.058;2023-03-23T23:18:34;12.30;99.90